CheckWX is a tool to help pilots better visualize weather data.  It is not intended as a substitute for an official pre-flight weather briefing.

18:19:18 UTC

PHMK TAF
Molokai Airport
Kaunakakai, Hawaii, USA
PHMK 171743Z 1718/1818 35008KT P6SM VCSH SCT020 BKN035 FM180000 32011KT P6SM SCT020 BKN035 FM181200 02005KT P6SM FEW025 SCT035

Feb-17@
18:00 UTC

Feb-17 @ 18:00 UTC

Feb-18@
00:00 UTC

Feb-18 @ 00:00 UTC

PHMK 171743Z 1718/1818 35008KT P6SM VCSH SCT020 BKN035
Wind
  • 350° at 8 KTS
Visibility
Greater than 6 SM
Cloud Levels
  • Scattered at 2,000' AGL
  • Broken at 3,500' AGL

Feb-18@
00:00 UTC

Feb-18 @ 00:00 UTC

Feb-18@
12:00 UTC

Feb-18 @ 12:00 UTC

FM180000 32011KT P6SM SCT020 BKN035

From

FromStandard forecast or significant change

Wind
  • 320° at 11 KTS
Visibility
Greater than 6 SM
Cloud Levels
  • Scattered at 2,000' AGL
  • Broken at 3,500' AGL

Feb-18@
12:00 UTC

Feb-18 @ 12:00 UTC

Feb-18@
18:00 UTC

Feb-18 @ 18:00 UTC

FM181200 02005KT P6SM FEW025 SCT035

From

FromStandard forecast or significant change

Wind
  • 020° at 5 KTS
Visibility
Greater than 6 SM
Cloud Levels
  • Few at 2,500' AGL
  • Scattered at 3,500' AGL